Beverly Hills, CA

3:08 PM PDT on September 18, 2014 (GMT -0700)
CBS Radio, Venice and Fairfax | Change Station
CLOSE
Current Station
Personal Weather Station
Location: Los Angeles, CA
Elevation: 97 ft
Nearby Weather Stations
Active Advisory: Beach Hazard Statement Active Notice: Record Report

Elev 97 ft 34.04 °N, 118.37 °W | Updated 3 minutes ago

Partly Cloudy
Partly Cloudy
76.4 °F
Feels Like 78 °F
N
6.0
Wind Variable Wind from West
Gusts 7.0 mph

Today
High -- | Low -- °F
--% Chance of Precip.
Yesterday
High -- | Low -- °F
Precip. -- in
6:38 AM 6:55 PM
Waning Crescent, 24% visible
Pressure 29.83 in
Visibility 10.0 miles
Clouds Scattered Clouds 1500 ft
Heat Index 78 °F
Dew Point 67 °F
Humidity 72%
Rainfall 0.00 in
Snow Depth 0 in , 0 in , 1 in
UV 5 out of 12
Pollen 6.80 out of 12
Ozone Good
Flu Activity Not available.
METAR KSMO 182151Z 24008KT 10SM SCT015 24/17 A2984 RMK AO2 SLP102 T02390172 $

More Conditions Fewer Conditions

Pressure 29.83 in
Visibility 10.0 miles
Clouds Scattered Clouds 1500 ft
Heat Index 78 °F
Dew Point 67 °F
Humidity 72%
Rainfall 0.00 in
Snow Depth 0 in , 0 in , 1 in
UV 5 out of 12
Pollen 6.80 out of 12
Ozone Good
Flu Activity Not available.
METAR KSMO 182151Z 24008KT 10SM SCT015 24/17 A2984 RMK AO2 SLP102 T02390172 $

More Conditions Fewer Conditions

10-Day Weather Forecast

Almanac

Astronomy

Sep. 18, 2014 Rise Set
Actual Time 6:38 AM PDT 6:55 PM PDT
Civil Twilight 6:13 AM PDT 7:20 PM PDT
Nautical Twilight 5:44 AM PDT 7:50 PM PDT
Astronomical Twilight 5:14 AM PDT 8:19 PM PDT
Moon 1:45 AM PDT 3:40 PM PDT
Length of Visible Light 13h 06m
Length of Day
12h 16m
Tomorrow will be 2m 6s shorter.
Waning Crescent, 24% of the Moon is Illuminated
Today
Waning Crescent
Sep 24
New
Oct 1
First Quarter
Oct 8
Full
Oct 15
Last Quarter

Today's Extremes

State Highs State Lows

Community

WunderPhotos

Upload Photos

1,754,458 photos uploaded!

WunderBlogs® & News

Nearby

Air Quality

  Air Quality AQ Index Pollutant
Yesterday Good
OZONE
Current Good
OZONE
Friday Good
PM10
Friday Good
OZONE
Friday Good
CO
Friday Good
NO2

Snow Depth

Station Depth Elevation
Summit Meadow 0 in 9122 ft
Leavitt Meadows 0 in 7200 ft
CSS Lab 1 in 6900 ft
Burnside Lake 0 in 8139 ft
Adin Mountain 0 in 6200 ft

Earthquake Activity

City Distance Mag. Time & Date
La Quinta, California 117 miles 2.7 8:59 PM PDT
2014-09-15
Minimum magnitude displayed is 2.5.

Coastal Water Temperatures

Place Temperature
Santa Monica Pier 73.0 °F
Los Angeles, CA 68.0 °F
La Jolla, CA 73.0 °F

Nearby Weather Stations